Time;durP1;ratioP1;P1;durP2;ratioP2;P2;SDS_P1;SDS_P2;PMS_P1;PMS_P2;Temp;Humidity;BMP_temperature;BMP_pressure;BME280_temperature;BME280_humidity;BME280_pressure;Samples;Min_cycle;Max_cycle;Signal;HPM_P1;HPM_P2
2022/11/05 00:16:42;;;;;;;24.25;10.70;;;19.80;99.90;;;;;;5041434;28;20573;-73
2022/11/05 00:16:56;;;;;;;10.68;4.00;;;19.60;99.90;;;;;;5031094;28;20371;-75
2022/11/05 00:19:23;;;;;;;7.60;2.28;;;19.00;99.90;;;;;;5053564;28;20041;-74
2022/11/05 00:27:23;;;;;;;6.55;2.22;;;18.60;99.90;;;;;;5063536;28;20044;-73
2022/11/05 00:29:50;;;;;;;3.35;1.65;;;18.60;99.90;;;;;;5063477;28;20040;-74
2022/11/05 00:32:18;;;;;;;4.38;2.15;;;18.70;99.90;;;;;;5057316;28;20049;-73
2022/11/05 00:34:45;;;;;;;4.15;1.85;;;18.70;99.90;;;;;;5024599;28;20052;-74
2022/11/05 00:37:13;;;;;;;6.85;2.10;;;18.70;99.90;;;;;;5054728;28;20052;-73
2022/11/05 00:39:41;;;;;;;7.28;1.50;;;18.70;99.90;;;;;;5046607;28;20056;-73
2022/11/05 00:45:00;;;;;;;3.92;1.58;;;18.70;99.90;;;;;;5050872;28;20037;-73
2022/11/05 00:50:17;;;;;;;7.63;1.98;;;18.70;99.90;;;;;;5052715;28;20473;-77
2022/11/05 00:52:54;;;;;;;6.57;2.10;;;18.60;99.90;;;;;;5026896;28;20095;-73
2022/11/05 00:55:28;;;;;;;5.97;2.30;;;18.70;99.90;;;;;;5041071;28;20117;-75
2022/11/05 00:57:56;;;;;;;8.32;2.22;;;18.70;99.90;;;;;;5045975;28;20356;-73
2022/11/05 01:00:27;;;;;;;7.25;2.60;;;18.70;99.90;;;;;;5029438;28;20087;-73
2022/11/05 01:03:00;;;;;;;4.88;2.47;;;18.70;99.90;;;;;;5032282;28;20060;-74
2022/11/05 01:05:28;;;;;;;6.63;2.10;;;18.60;99.90;;;;;;5036937;28;20775;-73
2022/11/05 01:07:56;;;;;;;8.18;2.35;;;18.60;99.90;;;;;;5057095;28;20479;-76
2022/11/05 01:10:24;;;;;;;4.15;1.90;;;18.70;99.90;;;;;;5047065;28;20136;-73
2022/11/05 01:12:52;;;;;;;6.53;1.70;;;18.50;99.90;;;;;;5055195;28;20087;-73
2022/11/05 01:15:20;;;;;;;5.65;2.78;;;18.50;99.90;;;;;;5027162;28;20052;-73
2022/11/05 01:17:50;;;;;;;5.45;2.00;;;18.20;99.90;;;;;;5029823;28;20069;-73
2022/11/05 01:20:18;;;;;;;8.50;2.50;;;18.30;99.90;;;;;;5025664;28;20108;-74
2022/11/05 01:22:45;;;;;;;8.43;2.53;;;18.20;99.90;;;;;;5028351;28;20091;-73
2022/11/05 01:25:13;;;;;;;5.88;3.40;;;18.00;99.90;;;;;;5044041;28;20083;-73
2022/11/05 01:27:41;;;;;;;4.65;2.47;;;18.00;99.90;;;;;;5059581;28;20498;-77
2022/11/05 01:30:09;;;;;;;6.35;2.08;;;17.90;99.90;;;;;;5030009;28;20044;-74
2022/11/05 01:32:37;;;;;;;6.75;3.30;;;18.00;99.90;;;;;;5046826;28;20041;-73
2022/11/05 01:35:06;;;;;;;8.07;2.03;;;17.90;99.90;;;;;;5037418;28;20029;-76
2022/11/05 01:37:34;;;;;;;7.97;3.17;;;17.80;99.90;;;;;;5029776;28;20076;-74
2022/11/05 01:40:03;;;;;;;7.85;2.47;;;17.60;99.90;;;;;;5044883;28;20109;-73
2022/11/05 01:42:31;;;;;;;4.97;2.42;;;17.60;99.90;;;;;;5041370;28;20075;-73
2022/11/05 01:44:59;;;;;;;19.05;3.42;;;17.50;99.90;;;;;;5051253;28;20120;-73
2022/11/05 01:47:38;;;;;;;6.50;2.10;;;17.40;99.90;;;;;;5051840;28;20727;-77
2022/11/05 01:50:47;;;;;;;7.95;2.40;;;17.50;99.90;;;;;;5054644;28;20037;-74
2022/11/05 01:53:33;;;;;;;11.77;2.92;;;17.40;99.90;;;;;;4986313;28;20048;-73
2022/11/05 01:56:17;;;;;;;7.20;3.58;;;17.40;99.90;;;;;;5040330;28;20408;-73
2022/11/05 01:58:57;;;;;;;11.07;2.78;;;17.40;99.90;;;;;;5030213;28;20052;-74
2022/11/05 02:01:24;;;;;;;5.72;2.60;;;17.30;99.90;;;;;;5031646;28;20819;-74
2022/11/05 02:03:57;;;;;;;8.60;3.03;;;17.30;99.90;;;;;;5048135;28;20052;-73
2022/11/05 02:06:27;;;;;;;6.95;2.83;;;17.30;99.90;;;;;;5029048;28;20074;-74
2022/11/05 02:09:06;;;;;;;9.85;3.25;;;17.30;99.90;;;;;;5047619;28;20056;-72
2022/11/05 02:11:34;;;;;;;8.52;2.85;;;17.40;99.90;;;;;;5031059;28;20479;-74
2022/11/05 02:14:01;;;;;;;10.38;3.22;;;17.40;99.90;;;;;;5064386;28;20510;-73
2022/11/05 02:16:47;;;;;;;7.70;3.42;;;17.30;99.90;;;;;;5050589;28;20045;-74
2022/11/05 02:19:47;;;;;;;13.95;3.45;;;17.30;99.90;;;;;;5062413;28;20166;-73
2022/11/05 02:22:52;;;;;;;11.02;3.42;;;17.30;99.90;;;;;;5027481;28;20546;-72
2022/11/05 02:25:23;;;;;;;9.48;3.35;;;17.30;99.90;;;;;;5063135;28;20058;-74
2022/11/05 02:28:19;;;;;;;11.25;3.67;;;17.20;99.90;;;;;;5047474;28;20090;-73
2022/11/05 02:30:59;;;;;;;9.77;3.30;;;17.10;99.90;;;;;;5046587;28;20570;-73
2022/11/05 02:33:39;;;;;;;7.20;2.97;;;17.10;99.90;;;;;;5028196;28;20037;-74
2022/11/05 02:36:31;;;;;;;9.40;3.85;;;17.10;99.90;;;;;;5044397;28;20058;-74
2022/11/05 02:39:29;;;;;;;9.55;3.60;;;17.10;99.90;;;;;;5063717;28;20056;-74
2022/11/05 02:42:29;;;;;;;9.40;3.88;;;17.10;99.90;;;;;;5054759;28;20041;-73
2022/11/05 02:45:26;;;;;;;10.18;3.22;;;17.20;99.90;;;;;;5049117;28;20455;-73
2022/11/05 02:48:18;;;;;;;10.02;3.50;;;17.20;99.90;;;;;;5059062;28;20048;-76
2022/11/05 02:50:56;;;;;;;6.30;2.65;;;17.20;99.90;;;;;;5063328;28;20072;-73
2022/11/05 02:53:29;;;;;;;7.40;3.47;;;17.20;99.90;;;;;;5063211;28;20036;-73
2022/11/05 02:56:02;;;;;;;7.05;3.17;;;17.20;99.90;;;;;;5046397;28;20048;-74
2022/11/05 02:58:32;;;;;;;10.45;3.95;;;17.20;99.90;;;;;;5030271;28;20143;-73
2022/11/05 03:01:05;;;;;;;7.78;3.90;;;17.20;99.90;;;;;;5047403;28;20086;-75
2022/11/05 03:03:38;;;;;;;6.53;3.85;;;17.10;99.90;;;;;;5062990;28;20040;-73
2022/11/05 03:06:36;;;;;;;8.20;3.78;;;17.20;99.90;;;;;;5062658;28;20070;-74
2022/11/05 03:09:10;;;;;;;13.00;3.55;;;17.10;99.90;;;;;;5063005;28;20063;-73
2022/11/05 03:11:46;;;;;;;7.47;3.55;;;17.10;99.90;;;;;;5064464;28;20045;-73
2022/11/05 03:14:20;;;;;;;;;;;17.10;99.90;;;;;;5047005;28;20041;-73
2022/11/05 03:17:32;;;;;;;8.88;3.72;;;17.10;99.90;;;;;;5046574;28;19924;-74
2022/11/05 03:20:30;;;;;;;5.78;3.15;;;17.10;99.90;;;;;;5054323;28;20052;-76
2022/11/05 03:23:16;;;;;;;9.15;3.97;;;17.10;99.90;;;;;;5060698;28;20127;-73
2022/11/05 03:26:19;;;;;;;6.28;3.50;;;17.00;99.90;;;;;;5058119;28;20040;-72
2022/11/05 03:28:52;;;;;;;10.00;4.53;;;17.10;99.90;;;;;;5029889;28;20048;-73
2022/11/05 03:31:21;;;;;;;7.65;4.40;;;17.10;99.90;;;;;;5045914;28;20403;-74
2022/11/05 03:33:52;;;;;;;14.45;4.57;;;17.20;99.90;;;;;;5058639;28;20443;-74
2022/11/05 03:36:31;;;;;;;7.60;4.70;;;17.20;99.90;;;;;;5054619;28;20041;-73
2022/11/05 03:39:03;;;;;;;8.52;4.55;;;17.20;99.90;;;;;;5062186;28;20159;-73
2022/11/05 03:41:34;;;;;;;9.07;5.43;;;17.20;99.90;;;;;;5063526;28;20157;-74
2022/11/05 03:44:05;;;;;;;12.10;4.88;;;17.20;99.90;;;;;;5033020;28;20048;-73
2022/11/05 03:46:48;;;;;;;13.93;6.35;;;17.20;99.90;;;;;;5042725;28;20139;-73
2022/11/05 03:49:20;;;;;;;16.98;4.93;;;17.20;99.90;;;;;;5062747;28;20040;-73
2022/11/05 03:51:52;;;;;;;9.48;5.70;;;17.30;99.90;;;;;;5062545;28;20506;-73
2022/11/05 03:54:20;;;;;;;10.63;4.85;;;17.30;99.90;;;;;;5061905;28;20475;-73
2022/11/05 03:57:38;;;;;;;12.48;5.88;;;17.30;99.90;;;;;;5044217;28;20068;-73
2022/11/05 04:00:08;;;;;;;7.10;4.30;;;17.30;99.90;;;;;;5052682;28;20051;-74
2022/11/05 04:02:37;;;;;;;11.90;5.18;;;17.40;99.90;;;;;;5061573;28;20136;-73
2022/11/05 04:05:05;;;;;;;18.90;6.47;;;17.50;99.90;;;;;;5053302;28;20135;-73
2022/11/05 04:13:25;;;;;;;14.90;6.00;;;17.60;99.90;;;;;;5045568;28;20044;-73
2022/11/05 04:18:40;;;;;;;8.85;4.03;;;17.30;99.90;;;;;;5063557;28;19950;-75
2022/11/05 04:24:08;;;;;;;8.90;3.67;;;17.20;99.90;;;;;;5053805;28;20148;-74
2022/11/05 04:26:42;;;;;;;10.13;3.90;;;17.20;99.90;;;;;;5042186;28;20047;-72
2022/11/05 04:31:56;;;;;;;16.23;7.07;;;17.00;99.90;;;;;;5063358;28;20116;-75
2022/11/05 04:34:23;;;;;;;20.88;7.85;;;17.00;99.90;;;;;;5062018;28;20210;-75
2022/11/05 04:36:52;;;;;;;18.45;6.72;;;17.00;99.90;;;;;;5062106;28;20048;-72
2022/11/05 04:39:20;;;;;;;14.57;6.07;;;17.00;99.90;;;;;;5062436;28;20073;-74
2022/11/05 04:41:48;;;;;;;15.80;5.47;;;17.00;99.90;;;;;;5044964;28;20052;-73
2022/11/05 04:44:16;;;;;;;14.27;5.82;;;17.00;99.90;;;;;;5012398;28;20049;-73
2022/11/05 04:46:43;;;;;;;14.70;6.28;;;17.00;99.90;;;;;;5043882;28;20071;-75
2022/11/05 04:49:11;;;;;;;11.35;5.00;;;17.10;99.90;;;;;;5053281;28;20047;-73
2022/11/05 04:51:38;;;;;;;14.00;5.93;;;17.10;99.90;;;;;;5046030;28;20044;-73
2022/11/05 04:54:06;;;;;;;12.10;5.93;;;17.20;99.90;;;;;;5044927;28;20041;-73
2022/11/05 04:56:33;;;;;;;15.57;6.15;;;17.20;99.90;;;;;;5029562;28;20127;-74
2022/11/05 04:59:01;;;;;;;9.52;4.53;;;17.10;99.90;;;;;;5041837;28;20037;-72
2022/11/05 05:01:28;;;;;;;17.80;5.32;;;17.00;99.90;;;;;;5048424;28;20109;-74
2022/11/05 05:03:56;;;;;;;10.90;4.82;;;17.00;99.90;;;;;;5048313;28;20045;-73
2022/11/05 05:06:23;;;;;;;8.65;3.50;;;17.00;99.90;;;;;;5065426;28;20068;-72
2022/11/05 05:08:51;;;;;;;9.98;3.47;;;16.90;99.90;;;;;;5031367;28;20133;-73
2022/11/05 05:11:21;;;;;;;8.13;4.40;;;16.80;99.90;;;;;;5028038;28;20040;-73
2022/11/05 05:13:49;;;;;;;14.15;3.78;;;16.70;99.90;;;;;;5044950;28;20095;-74
2022/11/05 05:16:25;;;;;;;10.93;4.53;;;16.70;99.90;;;;;;5045077;28;20045;-72
2022/11/05 05:18:53;;;;;;;;;;;16.60;99.90;;;;;;5053207;28;20044;-72
2022/11/05 05:21:40;;;;;;;5.95;2.97;;;16.70;99.90;;;;;;5028819;28;20017;-73
2022/11/05 05:24:13;;;;;;;10.68;3.65;;;16.60;99.90;;;;;;5045258;28;20399;-73
2022/11/05 05:26:47;;;;;;;3.83;2.40;;;16.50;99.90;;;;;;5045359;28;20065;-73
2022/11/05 05:29:16;;;;;;;4.80;2.97;;;16.50;99.90;;;;;;5062725;28;20882;-73
2022/11/05 05:31:43;;;;;;;10.63;3.08;;;16.40;99.90;;;;;;5066208;28;20040;-73
2022/11/05 05:34:12;;;;;;;10.48;2.85;;;16.30;99.90;;;;;;5031328;28;20123;-73
2022/11/05 05:36:40;;;;;;;9.63;3.63;;;16.30;99.90;;;;;;5064850;28;20102;-72
2022/11/05 05:39:09;;;;;;;9.45;3.58;;;16.30;99.90;;;;;;5060710;28;20574;-73
2022/11/05 05:41:37;;;;;;;12.57;4.03;;;16.20;99.90;;;;;;5049544;28;20037;-74
2022/11/05 05:44:05;;;;;;;7.07;3.15;;;16.20;99.90;;;;;;5056354;28;20038;-73
2022/11/05 05:46:33;;;;;;;8.18;2.42;;;16.20;99.90;;;;;;5031883;28;20060;-74
2022/11/05 05:49:00;;;;;;;7.93;3.83;;;16.20;99.90;;;;;;5046125;28;20044;-74
2022/11/05 05:51:28;;;;;;;10.23;2.78;;;16.20;99.90;;;;;;5059778;28;20032;-73
2022/11/05 05:53:55;;;;;;;6.18;2.72;;;16.20;99.90;;;;;;5054247;28;20939;-73
2022/11/05 05:56:23;;;;;;;7.88;3.55;;;16.30;99.90;;;;;;5057918;28;20041;-76
2022/11/05 05:58:52;;;;;;;10.25;3.45;;;16.30;99.90;;;;;;5054906;28;20310;-74
2022/11/05 06:01:20;;;;;;;11.63;4.05;;;16.20;99.90;;;;;;5056102;28;20147;-75
2022/11/05 06:03:48;;;;;;;7.72;3.40;;;16.20;99.90;;;;;;5036794;28;20083;-74
2022/11/05 06:06:18;;;;;;;9.05;3.10;;;16.20;99.90;;;;;;5031641;28;20048;-73
2022/11/05 06:08:47;;;;;;;11.30;3.15;;;16.20;99.90;;;;;;5065943;28;20773;-74
2022/11/05 06:11:15;;;;;;;7.72;3.70;;;16.20;99.90;;;;;;5046248;28;20045;-73
2022/11/05 06:13:42;;;;;;;10.25;3.45;;;16.20;99.90;;;;;;5047897;28;20052;-74
2022/11/05 06:16:10;;;;;;;11.07;3.58;;;16.20;99.90;;;;;;5044541;28;20718;-74
2022/11/05 06:18:38;;;;;;;12.73;4.25;;;16.20;99.90;;;;;;5027651;28;20503;-76
2022/11/05 06:21:09;;;;;;;12.85;3.85;;;16.20;99.90;;;;;;5015650;28;20351;-73
2022/11/05 06:23:39;;;;;;;6.80;2.88;;;16.20;99.90;;;;;;5031872;28;20148;-73
2022/11/05 06:26:12;;;;;;;9.07;3.67;;;16.20;99.90;;;;;;5031821;28;20061;-73
2022/11/05 06:28:41;;;;;;;5.65;3.15;;;16.20;99.90;;;;;;5032566;28;20140;-74
2022/11/05 06:31:09;;;;;;;15.68;4.47;;;16.30;99.90;;;;;;5048457;28;20055;-73
2022/11/05 06:33:38;;;;;;;12.38;3.95;;;16.20;99.90;;;;;;5048397;28;20048;-74
2022/11/05 06:36:07;;;;;;;11.00;3.67;;;16.20;99.90;;;;;;5065142;28;20053;-74
2022/11/05 06:38:35;;;;;;;11.07;3.97;;;16.30;99.90;;;;;;5031589;28;20052;-73
2022/11/05 06:41:04;;;;;;;7.53;3.03;;;16.30;99.90;;;;;;5032326;28;20073;-73
2022/11/05 06:43:35;;;;;;;10.35;4.30;;;16.40;99.90;;;;;;5015846;28;20076;-73
2022/11/05 06:46:03;;;;;;;8.70;3.40;;;16.40;99.90;;;;;;5031303;28;20071;-74
2022/11/05 06:48:30;;;;;;;9.88;3.35;;;16.40;99.90;;;;;;5031882;28;20476;-73
2022/11/05 06:50:58;;;;;;;10.40;3.80;;;16.40;99.90;;;;;;5048061;28;20091;-73
2022/11/05 06:53:26;;;;;;;13.38;3.72;;;16.40;99.90;;;;;;5049356;28;20048;-74
2022/11/05 06:55:53;;;;;;;10.48;3.15;;;16.40;99.90;;;;;;5049192;28;20127;-77
2022/11/05 06:58:21;;;;;;;7.72;4.20;;;16.30;99.90;;;;;;5031502;28;20073;-73
2022/11/05 07:00:49;;;;;;;7.82;3.45;;;16.40;99.90;;;;;;5014638;28;20570;-73
2022/11/05 07:03:17;;;;;;;8.93;4.07;;;16.40;99.90;;;;;;5030722;28;20055;-74
2022/11/05 07:05:48;;;;;;;9.35;3.40;;;16.30;99.90;;;;;;5046953;28;20582;-73
2022/11/05 07:08:16;;;;;;;13.18;3.85;;;16.30;99.90;;;;;;5030668;28;20060;-73
2022/11/05 07:10:43;;;;;;;14.32;3.45;;;16.30;99.90;;;;;;5063659;28;20045;-73
2022/11/05 07:13:11;;;;;;;11.55;4.80;;;16.20;99.90;;;;;;5047390;28;20525;-74
2022/11/05 07:15:39;;;;;;;6.88;3.08;;;16.20;99.90;;;;;;5047105;28;20088;-74
2022/11/05 07:18:07;;;;;;;7.40;3.63;;;16.20;99.90;;;;;;5053726;28;20040;-74
2022/11/05 07:20:34;;;;;;;14.85;4.00;;;16.20;99.90;;;;;;5067343;28;20053;-74
2022/11/05 07:23:05;;;;;;;11.30;4.57;;;16.10;99.90;;;;;;5050592;28;20487;-73
2022/11/05 07:25:33;;;;;;;7.80;3.75;;;16.10;99.90;;;;;;5066631;28;20052;-74
2022/11/05 07:28:01;;;;;;;11.52;4.88;;;16.10;99.90;;;;;;5050688;28;20045;-73
2022/11/05 07:30:30;;;;;;;14.15;4.68;;;16.10;99.90;;;;;;5050702;28;20139;-73
2022/11/05 07:32:58;;;;;;;12.32;4.25;;;16.10;99.90;;;;;;5034046;28;20048;-73
2022/11/05 07:35:26;;;;;;;12.18;3.15;;;16.10;99.90;;;;;;5050686;28;20104;-74
2022/11/05 07:37:55;;;;;;;10.35;3.92;;;16.00;99.90;;;;;;5050335;28;20054;-77
2022/11/05 07:40:26;;;;;;;12.95;4.35;;;15.90;99.90;;;;;;5033425;28;20091;-76
2022/11/05 07:42:56;;;;;;;8.82;3.22;;;15.90;99.90;;;;;;5066608;28;20048;-73
2022/11/05 07:45:26;;;;;;;7.68;3.53;;;15.80;99.90;;;;;;5050258;28;20053;-75
2022/11/05 07:47:56;;;;;;;7.18;2.85;;;15.80;99.90;;;;;;5033824;28;20053;-78
2022/11/05 07:50:27;;;;;;;7.70;3.65;;;15.80;99.90;;;;;;5050346;28;20402;-74
2022/11/05 07:53:05;;;;;;;11.43;4.18;;;15.80;99.90;;;;;;5050693;28;20052;-74
2022/11/05 07:55:33;;;;;;;8.25;4.85;;;15.70;99.90;;;;;;5067338;28;20044;-75
2022/11/05 07:58:02;;;;;;;7.88;2.97;;;15.70;99.90;;;;;;5050943;28;20078;-74
2022/11/05 08:00:30;;;;;;;7.00;3.08;;;15.60;99.90;;;;;;5050925;28;20040;-78
2022/11/05 08:03:03;;;;;;;4.82;2.65;;;15.60;99.90;;;;;;5050754;28;20040;-74
2022/11/05 08:05:36;;;;;;;7.50;2.50;;;15.50;99.90;;;;;;5066733;28;20052;-74
2022/11/05 08:08:06;;;;;;;6.45;3.90;;;15.50;99.90;;;;;;5050480;28;20048;-75
2022/11/05 08:10:35;;;;;;;10.95;4.85;;;15.60;99.90;;;;;;5050328;28;20044;-74
2022/11/05 08:13:03;;;;;;;8.77;3.60;;;15.60;99.90;;;;;;5050720;28;20407;-76
2022/11/05 08:15:32;;;;;;;9.82;3.78;;;15.60;99.90;;;;;;5051349;28;20478;-75
2022/11/05 08:18:12;;;;;;;14.55;4.68;;;15.70;99.90;;;;;;5068541;28;20045;-75
2022/11/05 08:20:41;;;;;;;6.53;3.47;;;15.70;99.90;;;;;;5054094;28;20105;-76
2022/11/05 08:23:10;;;;;;;11.63;5.57;;;15.70;99.90;;;;;;5054378;28;20072;-75
2022/11/05 08:25:38;;;;;;;6.32;4.32;;;15.70;99.90;;;;;;5070126;28;20070;-74
2022/11/05 08:28:09;;;;;;;8.20;3.97;;;15.80;99.90;;;;;;5068258;28;20063;-74
2022/11/05 08:30:37;;;;;;;9.75;4.93;;;15.80;99.90;;;;;;5070223;28;20697;-74
2022/11/05 08:33:08;;;;;;;9.82;5.43;;;15.80;99.90;;;;;;5071255;28;20641;-74
2022/11/05 08:35:37;;;;;;;8.57;3.78;;;15.80;99.90;;;;;;5070528;28;20056;-74
2022/11/05 08:38:07;;;;;;;7.07;3.80;;;15.80;99.90;;;;;;5053822;28;20071;-74
2022/11/05 08:40:35;;;;;;;10.25;4.70;;;15.80;99.90;;;;;;5053234;28;20060;-76
2022/11/05 08:43:05;;;;;;;6.32;3.92;;;15.80;99.90;;;;;;5070111;28;20044;-74
2022/11/05 08:45:35;;;;;;;6.32;4.05;;;15.80;99.90;;;;;;5070334;28;20105;-74
2022/11/05 08:48:09;;;;;;;13.07;4.35;;;15.80;99.90;;;;;;5053485;28;20633;-75
2022/11/05 08:50:38;;;;;;;10.02;3.75;;;15.80;99.90;;;;;;5054038;28;20075;-74
2022/11/05 08:53:07;;;;;;;8.63;4.47;;;15.90;99.90;;;;;;5070049;28;20044;-75
2022/11/05 08:55:34;;;;;;;7.00;3.28;;;15.90;99.90;;;;;;5071424;28;20159;-75
2022/11/05 08:58:04;;;;;;;7.05;3.63;;;16.00;99.90;;;;;;5069862;28;20335;-74
2022/11/05 09:00:34;;;;;;;12.20;3.95;;;16.10;99.90;;;;;;5053715;28;20380;-76
2022/11/05 09:03:05;;;;;;;6.32;3.60;;;16.10;99.90;;;;;;5053494;28;20162;-75
2022/11/05 09:05:38;;;;;;;9.43;4.07;;;16.10;99.90;;;;;;5069763;28;20056;-75
2022/11/05 09:08:14;;;;;;;9.15;4.45;;;16.10;99.90;;;;;;5069356;28;20048;-74
2022/11/05 09:10:43;;;;;;;12.65;5.50;;;16.10;99.90;;;;;;5035700;28;20057;-74
2022/11/05 09:13:11;;;;;;;12.55;6.32;;;16.10;99.90;;;;;;5036617;28;20083;-74
2022/11/05 09:15:43;;;;;;;9.23;4.93;;;16.10;99.90;;;;;;5070701;28;20135;-73
2022/11/05 09:18:12;;;;;;;9.48;4.22;;;16.10;99.90;;;;;;5069427;28;20189;-75
2022/11/05 09:20:40;;;;;;;6.97;3.83;;;16.10;99.90;;;;;;5052464;28;20057;-74
2022/11/05 09:23:09;;;;;;;9.32;4.15;;;16.20;99.90;;;;;;5036142;28;20052;-74
2022/11/05 09:25:37;;;;;;;10.55;4.18;;;16.20;99.90;;;;;;5035847;28;20054;-74
2022/11/05 09:28:15;;;;;;;10.25;4.28;;;16.20;99.90;;;;;;5068254;28;20078;-74
2022/11/05 09:30:46;;;;;;;10.77;4.05;;;16.30;99.90;;;;;;5069210;28;20048;-74
2022/11/05 09:33:17;;;;;;;13.40;4.68;;;16.30;99.90;;;;;;5069454;28;20044;-75
2022/11/05 09:35:45;;;;;;;9.98;4.45;;;16.40;99.90;;;;;;5052957;28;20045;-74
2022/11/05 09:38:13;;;;;;;7.97;3.83;;;16.40;99.90;;;;;;5035857;28;20904;-76
2022/11/05 09:41:04;;;;;;;7.47;3.72;;;16.50;99.90;;;;;;5052388;28;20558;-75
2022/11/05 09:43:36;;;;;;;6.10;4.03;;;16.50;99.90;;;;;;5070478;28;20767;-74
2022/11/05 09:46:14;;;;;;;13.73;3.92;;;16.50;99.90;;;;;;5052282;28;20395;-75
2022/11/05 09:48:43;;;;;;;13.90;6.28;;;16.50;99.90;;;;;;5068954;28;20057;-73
2022/11/05 09:51:14;;;;;;;8.35;3.63;;;16.60;99.90;;;;;;5069318;28;20048;-74
2022/11/05 09:53:46;;;;;;;11.75;4.43;;;16.50;99.90;;;;;;5069225;28;20048;-74
2022/11/05 09:56:32;;;;;;;8.07;4.28;;;16.60;99.90;;;;;;5068722;28;20870;-74
2022/11/05 09:59:04;;;;;;;17.13;4.53;;;16.50;99.90;;;;;;5052595;28;20048;-74
2022/11/05 10:01:37;;;;;;;12.75;4.78;;;16.50;99.90;;;;;;5052331;28;20157;-73
2022/11/05 10:04:25;;;;;;;14.30;4.25;;;16.50;99.90;;;;;;5064587;28;20052;-74
2022/11/05 10:06:57;;;;;;;18.27;4.72;;;16.60;99.90;;;;;;5049689;28;20088;-74
2022/11/05 10:10:07;;;;;;;9.57;4.40;;;16.50;99.90;;;;;;5048373;28;20049;-74
2022/11/05 10:12:56;;;;;;;15.60;5.82;;;16.40;99.90;;;;;;5015855;28;20155;-74
2022/11/05 10:15:32;;;;;;;11.75;3.42;;;16.30;99.90;;;;;;5015709;28;20073;-74
2022/11/05 10:18:15;;;;;;;10.68;6.30;;;16.40;99.90;;;;;;5020466;28;20052;-75
2022/11/05 10:20:43;;;;;;;12.02;4.93;;;16.40;99.90;;;;;;5043570;28;20087;-74
2022/11/05 10:23:20;;;;;;;12.77;5.00;;;16.40;99.90;;;;;;5049435;28;20037;-74
2022/11/05 10:25:59;;;;;;;12.88;6.00;;;16.40;99.90;;;;;;5034053;28;20113;-74
2022/11/05 10:28:31;;;;;;;7.15;4.03;;;16.40;99.90;;;;;;5068257;28;20044;-74
2022/11/05 10:31:01;;;;;;;8.13;5.13;;;16.50;99.90;;;;;;5032838;28;20128;-76
2022/11/05 10:33:43;;;;;;;13.68;4.53;;;16.50;99.90;;;;;;5059097;28;20380;-74
2022/11/05 10:36:22;;;;;;;10.27;4.05;;;16.40;99.90;;;;;;5061732;28;20110;-74
2022/11/05 10:38:50;;;;;;;17.60;5.85;;;16.40;99.90;;;;;;5042589;28;20525;-74
2022/11/05 10:41:27;;;;;;;18.08;5.57;;;16.30;99.90;;;;;;5069216;28;20056;-75
2022/11/05 10:44:04;;;;;;;8.65;4.07;;;16.30;99.90;;;;;;5067284;28;20044;-76
2022/11/05 10:46:41;;;;;;;11.55;6.15;;;16.30;99.90;;;;;;5066768;28;20406;-74
2022/11/05 10:49:17;;;;;;;19.20;5.95;;;16.40;99.90;;;;;;5059273;28;20131;-74
2022/11/05 10:51:51;;;;;;;18.17;7.05;;;16.50;99.90;;;;;;5050161;28;20120;-74
2022/11/05 10:54:23;;;;;;;22.15;7.10;;;16.60;99.90;;;;;;5062033;28;20123;-75
2022/11/05 10:56:50;;;;;;;13.80;4.63;;;16.60;99.90;;;;;;5051026;28;20071;-77
2022/11/05 10:59:24;;;;;;;22.92;5.95;;;16.60;99.90;;;;;;5031852;28;20056;-79
2022/11/05 11:02:17;;;;;;;24.60;6.53;;;16.70;99.90;;;;;;5045254;28;20053;-77
2022/11/05 11:04:55;;;;;;;15.85;6.15;;;16.70;99.90;;;;;;5062493;28;20126;-77
2022/11/05 11:07:24;;;;;;;17.80;6.78;;;16.70;99.90;;;;;;5063670;28;20036;-77
2022/11/05 11:09:52;;;;;;;19.00;6.55;;;16.80;99.90;;;;;;5061127;28;20045;-77
2022/11/05 11:12:26;;;;;;;20.05;7.32;;;16.80;99.90;;;;;;5051239;28;20064;-77
2022/11/05 11:15:27;;;;;;;21.58;7.43;;;16.80;99.90;;;;;;5046443;28;20041;-78
2022/11/05 11:17:55;;;;;;;21.70;7.82;;;16.90;99.90;;;;;;5038695;28;20063;-80
2022/11/05 11:20:32;;;;;;;20.67;7.00;;;16.90;99.90;;;;;;5046324;28;20083;-79
2022/11/05 11:23:15;;;;;;;16.98;7.03;;;16.90;99.90;;;;;;5063299;28;20516;-77
2022/11/05 11:25:59;;;;;;;14.65;6.95;;;16.90;99.90;;;;;;5048220;28;20127;-78
2022/11/05 11:28:39;;;;;;;25.05;7.63;;;16.80;99.90;;;;;;5032987;28;20048;-77
2022/11/05 11:31:13;;;;;;;18.25;9.52;;;16.90;99.90;;;;;;5047685;28;20057;-75
2022/11/05 11:33:49;;;;;;;14.77;6.22;;;16.90;99.90;;;;;;5061048;28;20123;-77
2022/11/05 11:36:23;;;;;;;23.48;8.02;;;16.80;99.90;;;;;;5065466;28;20040;-78
2022/11/05 11:38:58;;;;;;;21.60;8.40;;;16.80;99.90;;;;;;5033162;28;20052;-78
2022/11/05 11:41:40;;;;;;;16.90;6.07;;;16.70;99.90;;;;;;5064330;28;20039;-77
2022/11/05 11:44:18;;;;;;;18.02;8.65;;;16.70;99.90;;;;;;5064445;28;20107;-77
2022/11/05 11:46:50;;;;;;;16.40;4.75;;;16.70;99.90;;;;;;5061308;28;20053;-77
2022/11/05 11:49:53;;;;;;;10.82;5.60;;;16.70;99.90;;;;;;5048949;28;20119;-78
2022/11/05 11:52:28;;;;;;;12.20;3.90;;;16.60;99.90;;;;;;5032150;28;20102;-80
2022/11/05 11:55:16;;;;;;;8.10;4.22;;;16.60;99.90;;;;;;5042455;28;20460;-80
2022/11/05 11:57:47;;;;;;;12.55;4.85;;;16.60;99.90;;;;;;5036169;28;20063;-79
2022/11/05 12:00:17;;;;;;;12.82;4.03;;;16.50;99.90;;;;;;5056345;28;20106;-82
2022/11/05 12:03:06;;;;;;;12.23;4.88;;;16.50;99.90;;;;;;5063497;28;20045;-81
2022/11/05 12:05:47;;;;;;;10.35;5.03;;;16.50;99.90;;;;;;5028315;28;20146;-77
2022/11/05 12:08:26;;;;;;;24.48;5.50;;;16.50;99.90;;;;;;5025365;28;20406;-78
2022/11/05 12:11:03;;;;;;;19.48;5.10;;;16.50;99.90;;;;;;5048346;28;20127;-78
2022/11/05 12:13:55;;;;;;;12.02;5.20;;;16.50;99.90;;;;;;5048199;28;20727;-77
2022/11/05 12:16:36;;;;;;;10.68;4.07;;;16.40;99.90;;;;;;5045740;28;20064;-77
2022/11/05 12:19:20;;;;;;;9.90;4.72;;;16.40;99.90;;;;;;5031602;28;20067;-76
2022/11/05 12:22:03;;;;;;;8.35;3.85;;;16.30;99.90;;;;;;5045829;28;20040;-78
2022/11/05 12:24:49;;;;;;;9.35;4.50;;;16.30;99.90;;;;;;5039436;28;20080;-80
2022/11/05 12:27:36;;;;;;;7.88;4.22;;;16.20;99.90;;;;;;5018968;28;20060;-78
2022/11/05 12:30:20;;;;;;;8.73;3.03;;;16.10;99.90;;;;;;5026558;28;20175;-78
2022/11/05 12:33:12;;;;;;;4.95;2.63;;;15.90;99.90;;;;;;5037430;28;20091;-78
2022/11/05 12:36:04;;;;;;;3.58;1.80;;;15.80;99.90;;;;;;5029085;28;20045;-78
2022/11/05 12:39:18;;;;;;;2.58;1.50;;;15.80;99.90;;;;;;5049122;28;20047;-78
2022/11/05 12:42:06;;;;;;;6.78;2.03;;;15.80;99.90;;;;;;4980874;28;20054;-78
2022/11/05 12:45:09;;;;;;;3.95;2.25;;;15.90;99.90;;;;;;5028148;28;20179;-79
2022/11/05 12:47:45;;;;;;;3.58;2.03;;;16.10;99.90;;;;;;5047243;28;20053;-78
2022/11/05 12:50:16;;;;;;;;;;;16.20;99.90;;;;;;5028593;28;20147;-78
2022/11/05 12:53:00;;;;;;;3.08;1.60;;;16.30;99.90;;;;;;5032077;28;19921;-85
2022/11/05 12:55:38;;;;;;;5.05;2.45;;;16.30;99.90;;;;;;5044941;28;20067;-83
2022/11/05 12:58:14;;;;;;;4.68;1.30;;;16.30;99.90;;;;;;5038586;28;20071;-82
2022/11/05 13:00:49;;;;;;;4.47;2.00;;;16.20;99.90;;;;;;5033156;28;20055;-84
2022/11/05 13:03:49;;;;;;;5.00;1.97;;;16.20;99.90;;;;;;5051382;28;20403;-86
2022/11/05 13:06:24;;;;;;;3.63;1.40;;;16.30;99.90;;;;;;5050433;28;20105;-84
2022/11/05 13:09:03;;;;;;;10.20;2.25;;;16.40;99.90;;;;;;5049017;28;20040;-84
2022/11/05 13:11:56;;;;;;;4.28;2.20;;;16.40;99.90;;;;;;5055746;28;20095;-85
2022/11/05 13:14:58;;;;;;;6.07;1.92;;;16.40;99.90;;;;;;5046766;28;20108;-85
2022/11/05 13:17:32;;;;;;;3.88;2.38;;;16.40;99.90;;;;;;5041275;28;20399;-85
2022/11/05 13:20:18;;;;;;;7.13;2.85;;;16.40;99.90;;;;;;5085722;28;20708;-86
2022/11/05 13:23:01;;;;;;;6.78;2.70;;;16.30;99.90;;;;;;5047931;28;20044;-84
2022/11/05 13:25:35;;;;;;;5.93;2.13;;;16.20;99.90;;;;;;5043385;28;20097;-83
2022/11/05 13:28:48;;;;;;;11.02;3.58;;;16.30;99.90;;;;;;5061688;28;20059;-86
2022/11/05 13:31:20;;;;;;;4.75;2.88;;;16.20;99.90;;;;;;5078696;28;20036;-84
2022/11/05 13:33:51;;;;;;;3.42;2.17;;;16.20;99.90;;;;;;5054851;28;20051;-81
2022/11/05 13:39:29;;;;;;;3.50;1.95;;;16.30;99.90;;;;;;5060893;28;20084;-81
2022/11/05 13:42:02;;;;;;;4.93;2.22;;;16.20;99.90;;;;;;5030072;28;20106;-82
2022/11/05 13:44:50;;;;;;;4.63;2.65;;;16.20;99.90;;;;;;5049838;28;20774;-84
2022/11/05 13:47:46;;;;;;;5.93;1.98;;;16.20;99.90;;;;;;5056120;28;20045;-81
2022/11/05 13:50:29;;;;;;;6.47;3.03;;;16.30;99.90;;;;;;5063767;28;20151;-81
2022/11/05 13:53:15;;;;;;;3.90;2.20;;;16.30;99.90;;;;;;5061099;28;20560;-78
2022/11/05 13:55:54;;;;;;;5.15;2.30;;;16.30;99.90;;;;;;5060898;28;20041;-75
2022/11/05 13:58:44;;;;;;;7.68;2.75;;;16.20;99.90;;;;;;5078073;28;20398;-75
2022/11/05 14:01:34;;;;;;;8.80;2.88;;;16.30;99.90;;;;;;5058567;28;20394;-77
2022/11/05 14:04:03;;;;;;;5.03;2.20;;;16.40;99.90;;;;;;5060947;28;20556;-77